Time;durP1;ratioP1;P1;durP2;ratioP2;P2;SDS_P1;SDS_P2;PMS_P1;PMS_P2;Temp;Humidity;BMP_temperature;BMP_pressure;BME280_temperature;BME280_humidity;BME280_pressure;Samples;Min_cycle;Max_cycle;Signal;HPM_P1;HPM_P2
2022/03/23 00:02:03;;;;;;;9.85;5.13;;;;;;;3.28;41.20;100701.56;4863745;29;20048;-70
2022/03/23 00:04:28;;;;;;;10.60;5.13;;;;;;;3.27;41.43;100705.13;4862135;29;20529;-73
2022/03/23 00:06:53;;;;;;;12.75;4.90;;;;;;;3.25;41.32;100697.25;4863559;29;20107;-71
2022/03/23 00:09:17;;;;;;;13.20;4.65;;;;;;;3.23;41.23;100712.22;4862267;29;20480;-69
2022/03/23 00:11:42;;;;;;;11.73;5.05;;;;;;;3.19;41.28;100705.28;4866239;29;20108;-73
2022/03/23 00:14:09;;;;;;;11.57;4.47;;;;;;;3.20;42.07;100699.13;4862080;29;20044;-76
2022/03/23 00:16:38;;;;;;;12.88;5.28;;;;;;;3.22;42.43;100699.94;4848125;29;20080;-69
2022/03/23 00:19:04;;;;;;;11.77;5.00;;;;;;;3.18;41.65;100695.66;4866616;29;20048;-71
2022/03/23 00:21:29;;;;;;;12.90;4.65;;;;;;;3.15;41.64;100690.47;4863306;29;20148;-69
2022/03/23 00:23:54;;;;;;;9.82;4.93;;;;;;;3.15;41.49;100697.50;4846524;29;20049;-72
2022/03/23 00:26:19;;;;;;;12.02;4.75;;;;;;;3.10;41.42;100681.81;4862869;29;20057;-74
2022/03/23 00:28:45;;;;;;;8.95;4.07;;;;;;;3.08;41.38;100683.59;4861487;29;20285;-76
2022/03/23 00:31:10;;;;;;;13.13;4.68;;;;;;;3.07;41.92;100684.50;4846175;29;20135;-73
2022/03/23 00:33:35;;;;;;;9.75;6.40;;;;;;;3.04;42.29;100686.38;4863308;29;20055;-70
2022/03/23 00:36:02;;;;;;;9.40;3.95;;;;;;;3.05;42.50;100682.84;4845524;29;20048;-71
2022/03/23 00:38:27;;;;;;;10.70;4.93;;;;;;;3.03;42.46;100682.00;4861288;29;20056;-72
2022/03/23 00:40:52;;;;;;;10.32;5.07;;;;;;;3.01;42.46;100676.78;4861285;29;20041;-72
2022/03/23 00:43:17;;;;;;;10.10;4.68;;;;;;;2.96;42.10;100676.00;4862900;29;20067;-72
2022/03/23 00:45:42;;;;;;;10.38;6.35;;;;;;;2.95;41.96;100679.53;4862897;29;20048;-71
2022/03/23 00:48:07;;;;;;;13.60;4.82;;;;;;;2.92;41.66;100669.97;4862883;29;20040;-71
2022/03/23 00:50:34;;;;;;;11.35;5.00;;;;;;;2.87;41.78;100674.47;4861432;29;20093;-70
2022/03/23 00:52:59;;;;;;;9.75;4.97;;;;;;;2.84;41.94;100671.03;4862118;29;20528;-73
2022/03/23 00:55:24;;;;;;;12.23;4.90;;;;;;;2.82;42.27;100675.47;4861118;29;20526;-72
2022/03/23 00:57:49;;;;;;;9.75;4.40;;;;;;;2.79;42.22;100665.00;4860888;29;20048;-71
2022/03/23 01:00:17;;;;;;;13.02;4.68;;;;;;;2.79;42.44;100671.16;4861066;29;20188;-70
2022/03/23 01:02:44;;;;;;;11.93;5.05;;;;;;;2.72;42.11;100682.69;4861641;29;20527;-71
2022/03/23 01:05:11;;;;;;;8.57;4.53;;;;;;;2.69;42.21;100674.91;4863740;29;20543;-69
2022/03/23 01:07:36;;;;;;;14.63;6.00;;;;;;;2.67;42.26;100678.47;4866187;29;20189;-72
2022/03/23 01:10:03;;;;;;;9.40;4.50;;;;;;;2.62;43.05;100678.53;4863591;29;20048;-73
2022/03/23 01:12:27;;;;;;;11.18;5.55;;;;;;;2.59;43.18;100676.00;4866041;29;20044;-71
2022/03/23 01:14:52;;;;;;;9.05;5.30;;;;;;;2.56;43.11;100681.34;4865383;29;20048;-68
2022/03/23 01:17:17;;;;;;;10.00;4.97;;;;;;;2.51;43.25;100670.91;4864930;29;20048;-70
2022/03/23 01:19:42;;;;;;;8.07;4.70;;;;;;;2.49;43.61;100672.69;4864628;29;20111;-70
2022/03/23 01:22:07;;;;;;;10.88;5.75;;;;;;;2.47;43.98;100674.50;4867424;29;20052;-71
2022/03/23 01:24:33;;;;;;;16.10;4.90;;;;;;;2.44;43.90;100671.94;4869772;29;20056;-71
2022/03/23 01:26:58;;;;;;;10.93;5.35;;;;;;;2.45;43.72;100671.03;4872198;29;20048;-72
2022/03/23 01:29:23;;;;;;;10.38;4.70;;;;;;;2.45;43.71;100667.53;4850640;29;20067;-74
2022/03/23 01:31:47;;;;;;;12.13;5.53;;;;;;;2.46;43.73;100664.88;4850394;29;20044;-70
2022/03/23 01:34:12;;;;;;;7.97;3.97;;;;;;;2.47;43.37;100661.34;4861796;29;20139;-73
2022/03/23 01:36:37;;;;;;;9.00;4.57;;;;;;;2.47;42.39;100668.38;4866917;29;20069;-68
2022/03/23 01:39:02;;;;;;;10.27;5.22;;;;;;;2.44;43.12;100669.31;4862048;29;20049;-70
2022/03/23 01:41:27;;;;;;;11.25;5.40;;;;;;;2.38;43.56;100658.03;4855869;29;20045;-71
2022/03/23 01:43:52;;;;;;;10.85;4.72;;;;;;;2.34;44.27;100667.78;4848820;29;20083;-73
2022/03/23 01:46:20;;;;;;;7.35;4.63;;;;;;;2.35;43.68;100659.00;4856217;29;20127;-71
2022/03/23 01:48:47;;;;;;;13.02;5.07;;;;;;;2.32;44.57;100653.78;4860988;29;20085;-71
2022/03/23 01:51:13;;;;;;;10.27;4.85;;;;;;;2.31;44.73;100657.31;4854473;29;20053;-73
2022/03/23 01:53:38;;;;;;;7.63;4.65;;;;;;;2.28;44.85;100652.09;4855891;29;20052;-75
2022/03/23 01:56:03;;;;;;;12.65;5.10;;;;;;;2.28;44.53;100657.38;4847281;29;20521;-69
2022/03/23 01:58:29;;;;;;;10.98;5.00;;;;;;;2.28;44.46;100652.09;4856347;29;20052;-71
2022/03/23 02:00:53;;;;;;;11.70;5.60;;;;;;;2.27;44.36;100649.50;4865041;29;20050;-71
2022/03/23 02:03:18;;;;;;;11.60;5.05;;;;;;;2.25;44.30;100646.94;4856056;29;20159;-71
2022/03/23 02:05:43;;;;;;;11.75;6.53;;;;;;;2.22;44.25;100644.38;4845029;29;20090;-69
2022/03/23 02:08:10;;;;;;;9.60;4.93;;;;;;;2.22;44.50;100639.09;4844555;29;20074;-71
2022/03/23 02:10:37;;;;;;;9.95;5.63;;;;;;;2.21;44.39;100637.38;4844020;29;20128;-69
2022/03/23 02:13:09;;;;;;;22.90;6.80;;;;;;;2.22;44.76;100641.72;4845117;29;20416;-68
2022/03/23 02:15:35;;;;;;;9.23;5.32;;;;;;;2.22;44.83;100647.00;4850453;29;20100;-71
2022/03/23 02:18:00;;;;;;;10.90;5.00;;;;;;;2.21;45.39;100637.38;4845292;29;20053;-71
2022/03/23 02:20:25;;;;;;;14.43;6.28;;;;;;;2.18;45.48;100635.66;4843398;29;20111;-73
2022/03/23 02:22:50;;;;;;;11.00;5.00;;;;;;;2.17;45.57;100643.59;4843344;29;20053;-73
2022/03/23 02:25:21;;;;;;;12.85;4.55;;;;;;;2.17;46.17;100638.31;4828644;29;20045;-72
2022/03/23 02:27:47;;;;;;;10.32;5.38;;;;;;;2.12;46.11;100641.06;4844577;29;20813;-72
2022/03/23 02:30:12;;;;;;;10.90;5.38;;;;;;;2.09;45.82;100648.16;4852408;29;20390;-72
2022/03/23 02:32:37;;;;;;;9.75;4.78;;;;;;;2.06;45.72;100640.31;4849030;29;20501;-72
2022/03/23 02:35:03;;;;;;;10.40;5.80;;;;;;;2.01;45.62;100640.44;4852985;29;20393;-72
2022/03/23 02:37:28;;;;;;;9.80;4.78;;;;;;;1.98;45.29;100639.63;4864229;29;20391;-74
2022/03/23 02:39:53;;;;;;;11.60;4.78;;;;;;;1.96;45.82;100634.38;4863579;29;20040;-73
2022/03/23 02:42:18;;;;;;;10.02;5.43;;;;;;;1.96;45.49;100633.50;4872853;29;20029;-73
2022/03/23 02:44:43;;;;;;;11.85;5.38;;;;;;;1.94;46.50;100636.16;4877008;29;20047;-73
2022/03/23 02:47:08;;;;;;;11.00;5.32;;;;;;;1.94;45.79;100635.31;4877133;29;20044;-72
2022/03/23 02:49:33;;;;;;;12.13;5.03;;;;;;;1.92;45.41;100635.34;4868370;29;20424;-71
2022/03/23 02:51:58;;;;;;;9.50;6.10;;;;;;;1.92;45.24;100629.25;4876056;29;20407;-72
2022/03/23 03:03:26;;;;;;;11.10;4.45;;;;;;;1.89;44.93;100627.53;4864052;29;20052;-67
2022/03/23 03:05:51;;;;;;;10.93;4.70;;;;;;;1.87;45.41;100631.94;4858708;29;20036;-69
2022/03/23 03:10:59;;;;;;;12.85;4.72;;;;;;;1.84;45.23;100621.47;4845367;29;20057;-64
2022/03/23 03:13:24;;;;;;;10.15;5.20;;;;;;;1.81;46.06;100617.16;4836299;29;20063;-64
2022/03/23 03:15:48;;;;;;;9.73;5.30;;;;;;;1.81;45.68;100614.53;4858981;29;20067;-65
2022/03/23 03:18:13;;;;;;;7.70;4.88;;;;;;;1.81;45.92;100611.88;4859577;29;20393;-67
2022/03/23 03:20:38;;;;;;;9.40;4.45;;;;;;;1.79;45.88;100624.22;4854796;29;20825;-66
2022/03/23 03:23:03;;;;;;;16.75;5.45;;;;;;;1.80;45.81;100618.06;4854749;29;20116;-65
2022/03/23 03:25:28;;;;;;;9.07;5.63;;;;;;;1.77;46.10;100614.63;4858466;29;20051;-63
2022/03/23 03:27:53;;;;;;;14.30;7.20;;;;;;;1.77;46.55;100612.00;4861656;29;20143;-63
2022/03/23 03:30:18;;;;;;;11.55;7.63;;;;;;;1.76;46.94;100608.50;4844679;29;20223;-63
2022/03/23 03:32:45;;;;;;;16.48;7.18;;;;;;;1.73;46.83;100605.94;4853631;29;20055;-63
2022/03/23 03:35:11;;;;;;;18.42;6.53;;;;;;;1.75;46.73;100608.53;4862555;29;20052;-66
2022/03/23 03:37:36;;;;;;;11.75;5.80;;;;;;;1.73;46.77;100611.19;4825775;29;20049;-64
2022/03/23 03:40:04;;;;;;;9.05;5.15;;;;;;;1.75;46.20;100613.78;4870588;29;20047;-64
2022/03/23 03:42:29;;;;;;;12.10;5.45;;;;;;;1.75;47.15;100612.03;4862410;29;20071;-65
2022/03/23 03:44:54;;;;;;;11.95;6.28;;;;;;;1.80;46.99;100623.34;4863247;29;20048;-64
2022/03/23 03:47:19;;;;;;;14.02;6.80;;;;;;;1.88;46.67;100615.28;4864767;29;20052;-66
2022/03/23 03:49:44;;;;;;;11.63;6.57;;;;;;;1.99;46.79;100612.41;4864196;29;20051;-64
2022/03/23 03:52:09;;;;;;;20.02;7.20;;;;;;;2.08;46.59;100617.47;4862474;29;20052;-64
2022/03/23 03:54:33;;;;;;;15.75;5.38;;;;;;;2.18;46.01;100613.75;4846846;29;20091;-64
2022/03/23 03:56:58;;;;;;;20.83;9.63;;;;;;;2.29;46.24;100619.63;4862333;29;20131;-64
2022/03/23 03:59:23;;;;;;;11.07;5.40;;;;;;;2.38;45.18;100613.28;4862626;29;20112;-65
2022/03/23 04:01:49;;;;;;;8.43;5.15;;;;;;;2.47;45.81;100616.63;4863307;29;20044;-64
2022/03/23 04:04:14;;;;;;;11.77;5.78;;;;;;;2.57;45.42;100603.22;4863482;29;20040;-64
2022/03/23 04:06:39;;;;;;;12.20;6.32;;;;;;;2.70;46.09;100602.91;4864276;29;20059;-64
2022/03/23 04:09:03;;;;;;;18.63;5.40;;;;;;;2.80;45.43;100593.88;4868518;29;20068;-64
2022/03/23 04:11:30;;;;;;;13.35;6.68;;;;;;;2.97;45.30;100606.63;4864084;29;20062;-63
2022/03/23 04:13:54;;;;;;;14.57;6.32;;;;;;;3.13;44.50;100596.56;4861806;29;20083;-65
2022/03/23 04:16:19;;;;;;;19.35;6.07;;;;;;;3.32;43.82;100595.16;4863060;29;20084;-64
2022/03/23 04:18:44;;;;;;;10.30;4.95;;;;;;;3.53;42.78;100591.09;4861754;29;20055;-62
2022/03/23 04:21:09;;;;;;;8.07;5.05;;;;;;;3.75;42.71;100594.84;4861720;29;20567;-64
2022/03/23 04:23:34;;;;;;;9.85;5.70;;;;;;;4.02;42.29;100598.47;4861684;29;20036;-64
2022/03/23 04:25:58;;;;;;;20.92;6.93;;;;;;;4.27;42.03;100588.91;4861412;29;20044;-63
2022/03/23 04:28:23;;;;;;;15.30;6.03;;;;;;;4.53;41.35;100588.06;4862459;29;20060;-63
2022/03/23 04:30:48;;;;;;;8.20;4.95;;;;;;;4.68;39.34;100590.25;4862520;29;20076;-64
2022/03/23 04:33:13;;;;;;;13.40;5.63;;;;;;;4.80;39.32;100588.09;4861203;29;20079;-64
2022/03/23 04:35:38;;;;;;;21.45;6.43;;;;;;;5.03;39.14;100578.50;4861395;29;20429;-64
2022/03/23 04:38:03;;;;;;;17.92;6.43;;;;;;;5.29;38.71;100576.75;4861118;29;20048;-64
2022/03/23 04:40:28;;;;;;;15.38;6.40;;;;;;;5.51;39.05;100579.50;4861205;29;20040;-64
2022/03/23 04:42:53;;;;;;;17.95;6.07;;;;;;;5.79;38.98;100580.22;4862463;29;20048;-64
2022/03/23 04:45:19;;;;;;;13.68;5.53;;;;;;;6.09;38.61;100583.53;4861081;29;20103;-65
2022/03/23 04:47:44;;;;;;;27.52;7.53;;;;;;;6.40;38.86;100584.06;4860868;29;20059;-66
2022/03/23 04:50:11;;;;;;;9.48;5.72;;;;;;;6.66;36.32;100583.00;4861415;29;20059;-65
2022/03/23 04:52:39;;;;;;;19.35;6.38;;;;;;;6.84;36.18;100579.63;4861020;29;20603;-66
2022/03/23 04:55:06;;;;;;;19.73;7.10;;;;;;;7.07;36.09;100575.16;4861648;29;20044;-65
2022/03/23 04:57:31;;;;;;;11.55;5.60;;;;;;;7.28;35.79;100572.44;4862075;29;20135;-65
2022/03/23 04:59:58;;;;;;;17.02;6.13;;;;;;;7.59;35.04;100579.06;4862076;29;20135;-64
2022/03/23 05:02:23;;;;;;;15.27;6.07;;;;;;;7.84;34.02;100573.50;4862372;29;20052;-63
2022/03/23 05:04:48;;;;;;;15.43;5.78;;;;;;;8.04;33.52;100570.81;4861821;29;20072;-64
2022/03/23 05:07:13;;;;;;;13.57;6.43;;;;;;;8.20;33.52;100568.31;4862047;29;20139;-63
2022/03/23 05:09:38;;;;;;;15.30;5.93;;;;;;;8.37;32.90;100560.41;4860514;29;20044;-63
2022/03/23 05:12:03;;;;;;;11.63;6.35;;;;;;;8.54;32.27;100567.59;4861934;29;20040;-65
2022/03/23 05:14:28;;;;;;;17.25;6.63;;;;;;;8.82;32.00;100557.31;4860538;29;20574;-70
2022/03/23 05:16:53;;;;;;;11.10;6.65;;;;;;;9.04;32.17;100554.44;4861776;29;20515;-71
2022/03/23 05:19:17;;;;;;;24.08;7.43;;;;;;;9.20;31.24;100555.41;4861035;29;20048;-70
2022/03/23 05:21:42;;;;;;;21.55;7.25;;;;;;;9.36;30.83;100555.47;4860782;29;20107;-71
2022/03/23 05:24:07;;;;;;;17.13;7.35;;;;;;;9.58;31.33;100557.88;4861758;29;20044;-71
2022/03/23 05:26:32;;;;;;;20.17;8.27;;;;;;;9.81;29.99;100555.72;4861811;29;20044;-64
2022/03/23 05:28:56;;;;;;;19.85;7.18;;;;;;;10.10;30.03;100555.91;4860182;29;20535;-64
2022/03/23 05:31:21;;;;;;;14.82;6.68;;;;;;;10.41;29.52;100561.28;4861668;29;20504;-64
2022/03/23 05:33:46;;;;;;;18.25;7.40;;;;;;;10.82;28.78;100558.09;4860301;29;20040;-64
2022/03/23 05:36:11;;;;;;;22.45;7.13;;;;;;;11.19;28.21;100554.94;4861542;29;20095;-64
2022/03/23 05:38:36;;;;;;;14.80;6.60;;;;;;;11.61;27.99;100554.19;4861684;29;20446;-66
2022/03/23 05:41:01;;;;;;;13.00;6.93;;;;;;;12.00;27.48;100550.03;4860484;29;20044;-66
2022/03/23 05:43:25;;;;;;;21.60;7.53;;;;;;;12.56;26.72;100542.84;4861993;29;20126;-67
2022/03/23 05:45:50;;;;;;;14.20;7.65;;;;;;;13.25;26.45;100549.84;4862985;29;20048;-65
2022/03/23 05:48:15;;;;;;;10.65;6.55;;;;;;;13.86;25.62;100548.28;4861223;29;20518;-65
2022/03/23 05:50:39;;;;;;;19.27;10.57;;;;;;;14.56;24.79;100545.91;4861981;29;20048;-65
2022/03/23 05:53:04;;;;;;;23.88;10.60;;;;;;;15.25;24.20;100550.47;4862024;29;20049;-65
2022/03/23 05:55:29;;;;;;;27.92;11.45;;;;;;;15.95;23.01;100548.56;4845642;29;20512;-65
2022/03/23 05:57:55;;;;;;;21.92;12.20;;;;;;;16.56;22.27;100540.94;4861722;29;20078;-66
2022/03/23 06:00:19;;;;;;;17.52;11.75;;;;;;;17.14;21.83;100535.28;4861458;29;20076;-65
2022/03/23 06:02:44;;;;;;;26.58;12.07;;;;;;;17.76;20.74;100530.75;4861112;29;20076;-65
2022/03/23 06:05:10;;;;;;;24.88;11.38;;;;;;;18.37;20.41;100536.13;4860445;29;20135;-65
2022/03/23 06:07:35;;;;;;;21.90;10.88;;;;;;;18.98;20.00;100535.09;4861748;29;20044;-65
2022/03/23 06:10:01;;;;;;;19.17;10.40;;;;;;;19.46;19.29;100538.63;4864610;29;20054;-65
2022/03/23 06:12:27;;;;;;;18.40;9.13;;;;;;;20.07;18.54;100538.22;4865905;29;20076;-64
2022/03/23 06:14:52;;;;;;;20.67;10.13;;;;;;;20.61;18.86;100537.38;4877545;29;20040;-64
2022/03/23 06:17:17;;;;;;;23.70;11.50;;;;;;;21.11;17.98;100539.56;4873802;29;20134;-64
2022/03/23 06:19:42;;;;;;;20.08;8.95;;;;;;;21.61;17.58;100530.88;4867135;29;20043;-63
2022/03/23 06:22:07;;;;;;;20.02;8.70;;;;;;;22.03;16.89;100534.56;4876224;29;20099;-65
2022/03/23 06:24:31;;;;;;;19.42;9.32;;;;;;;22.41;16.68;100529.66;4871158;29;20049;-65
2022/03/23 06:26:56;;;;;;;20.55;10.00;;;;;;;22.92;16.59;100535.91;4861458;29;20056;-66
2022/03/23 06:29:21;;;;;;;24.85;9.27;;;;;;;23.39;16.38;100526.09;4862019;29;20048;-66
2022/03/23 06:31:46;;;;;;;16.98;9.45;;;;;;;23.95;15.92;100531.66;4860894;29;20056;-66
2022/03/23 06:34:11;;;;;;;16.30;8.77;;;;;;;24.45;15.70;100531.34;4830300;29;20045;-65
2022/03/23 06:36:36;;;;;;;25.13;10.57;;;;;;;24.87;14.85;100526.31;4860966;29;20135;-68
2022/03/23 06:39:01;;;;;;;20.83;9.27;;;;;;;25.28;14.64;100531.53;4844618;29;20419;-65
2022/03/23 06:41:26;;;;;;;21.90;8.93;;;;;;;25.59;14.05;100528.69;4860385;29;20056;-64
2022/03/23 06:43:51;;;;;;;28.90;9.57;;;;;;;25.88;13.65;100517.84;4859781;29;20040;-64
2022/03/23 06:46:15;;;;;;;22.98;9.10;;;;;;;26.11;13.78;100528.69;4860070;29;20504;-65
2022/03/23 06:48:40;;;;;;;20.40;9.05;;;;;;;26.48;13.34;100526.91;4859908;29;20044;-65
2022/03/23 06:51:05;;;;;;;19.90;8.35;;;;;;;26.78;13.26;100528.50;4844333;29;20456;-66
2022/03/23 06:53:30;;;;;;;18.23;7.70;;;;;;;26.96;12.92;100526.25;4828849;29;20045;-66
2022/03/23 06:55:55;;;;;;;17.15;7.97;;;;;;;27.11;12.88;100524.28;4861157;29;20096;-65
2022/03/23 06:58:21;;;;;;;14.48;7.95;;;;;;;27.17;12.77;100519.91;4859749;29;20401;-65
2022/03/23 07:00:46;;;;;;;14.10;8.13;;;;;;;27.52;12.71;100523.59;4859789;29;20091;-66
2022/03/23 07:03:10;;;;;;;14.60;7.43;;;;;;;27.88;12.42;100514.44;4859846;29;20099;-66
2022/03/23 07:05:36;;;;;;;19.70;7.68;;;;;;;28.16;12.16;100523.44;4860156;29;20055;-66
2022/03/23 07:10:44;;;;;;;17.48;7.57;;;;;;;27.93;12.00;100517.41;4859820;29;20049;-65
2022/03/23 07:13:09;;;;;;;19.35;7.65;;;;;;;28.27;12.34;100511.09;4829698;29;20052;-66
2022/03/23 07:15:34;;;;;;;16.17;6.95;;;;;;;28.71;11.75;100506.00;4847557;29;20460;-65
2022/03/23 07:17:59;;;;;;;13.48;7.50;;;;;;;29.07;11.47;100505.69;4831857;29;20484;-65
2022/03/23 07:20:24;;;;;;;15.23;7.25;;;;;;;29.66;11.49;100512.28;4864138;29;20104;-66
2022/03/23 07:22:49;;;;;;;14.98;7.78;;;;;;;30.37;10.80;100502.19;4831595;29;20048;-66
2022/03/23 07:25:14;;;;;;;18.73;7.30;;;;;;;31.25;10.45;100500.50;4831284;29;20051;-66
2022/03/23 07:27:39;;;;;;;13.20;7.38;;;;;;;32.02;10.04;100512.97;4863609;29;20048;-66
2022/03/23 07:30:05;;;;;;;19.45;7.55;;;;;;;32.52;9.99;100514.72;4847147;29;20044;-64
2022/03/23 07:32:30;;;;;;;15.02;7.25;;;;;;;33.02;9.39;100512.59;4863772;29;20539;-66
2022/03/23 07:34:55;;;;;;;15.52;7.22;;;;;;;33.38;9.51;100512.47;4863598;29;20507;-65
2022/03/23 07:37:19;;;;;;;10.73;6.88;;;;;;;33.68;9.13;100511.53;4863906;29;20064;-65
2022/03/23 07:39:45;;;;;;;12.93;7.47;;;;;;;33.75;8.97;100492.97;4831623;29;20048;-64
2022/03/23 07:42:10;;;;;;;16.88;7.55;;;;;;;33.57;8.85;100504.06;4862181;29;20055;-64
2022/03/23 07:44:35;;;;;;;12.90;7.40;;;;;;;33.68;8.82;100500.47;4846693;29;20051;-63
2022/03/23 07:47:01;;;;;;;10.38;6.07;;;;;;;33.94;8.52;100502.81;4863586;29;20048;-64
2022/03/23 07:49:26;;;;;;;10.77;6.50;;;;;;;33.96;8.30;100499.78;4863698;29;20122;-65
2022/03/23 07:51:51;;;;;;;15.45;6.85;;;;;;;34.23;8.41;100489.88;4863813;29;20052;-65
2022/03/23 07:54:16;;;;;;;11.02;6.25;;;;;;;34.35;8.64;100498.19;4863348;29;20057;-64
2022/03/23 07:56:41;;;;;;;14.05;5.80;;;;;;;33.89;8.22;100491.59;4863184;29;20127;-64
2022/03/23 07:59:06;;;;;;;8.50;5.70;;;;;;;33.24;8.68;100488.91;4863147;29;20080;-65
2022/03/23 08:01:31;;;;;;;10.95;5.68;;;;;;;33.26;8.71;100480.38;4846332;29;20535;-64
2022/03/23 08:03:56;;;;;;;10.77;5.70;;;;;;;33.32;8.52;100479.41;4863030;29;20044;-64
2022/03/23 08:06:20;;;;;;;10.73;5.65;;;;;;;34.03;8.43;100476.44;4863122;29;20107;-64
2022/03/23 08:08:45;;;;;;;9.80;5.68;;;;;;;34.58;8.11;100471.25;4861594;29;20044;-64
2022/03/23 08:11:11;;;;;;;7.47;5.50;;;;;;;35.23;7.90;100472.75;4865863;29;20411;-64
2022/03/23 08:13:35;;;;;;;14.57;5.10;;;;;;;35.21;7.78;100470.25;4868432;29;20059;-65
2022/03/23 08:16:04;;;;;;;7.20;4.95;;;;;;;35.13;7.88;100467.88;4861944;29;20044;-65
2022/03/23 08:18:28;;;;;;;7.50;5.68;;;;;;;34.97;8.05;100463.16;4869792;29;20474;-65
2022/03/23 08:20:53;;;;;;;8.20;5.40;;;;;;;35.26;7.90;100458.41;4863989;29;20040;-65
2022/03/23 08:23:19;;;;;;;5.72;4.97;;;;;;;35.70;7.50;100464.09;4862680;29;20045;-66
2022/03/23 08:25:44;;;;;;;8.07;5.63;;;;;;;35.76;7.26;100465.91;4862541;29;20037;-66
2022/03/23 08:28:11;;;;;;;6.20;5.32;;;;;;;36.35;7.55;100473.38;4861812;29;20151;-66
2022/03/23 08:30:36;;;;;;;11.25;5.65;;;;;;;36.68;7.54;100466.81;4865727;29;20040;-65
2022/03/23 08:33:02;;;;;;;9.45;5.95;;;;;;;37.10;6.99;100463.41;4863333;29;20138;-65
2022/03/23 08:35:27;;;;;;;7.95;6.18;;;;;;;36.66;6.44;100459.88;4864307;29;20058;-65
2022/03/23 08:37:52;;;;;;;8.55;5.63;;;;;;;36.59;6.95;100462.00;4858302;29;20057;-66
2022/03/23 08:40:17;;;;;;;8.43;6.05;;;;;;;36.15;6.48;100445.34;4829241;29;20037;-65
2022/03/23 08:42:42;;;;;;;8.45;5.95;;;;;;;35.63;7.06;100436.53;4844489;29;20045;-64
2022/03/23 08:45:07;;;;;;;10.05;6.45;;;;;;;35.98;7.00;100444.56;4845317;29;20045;-65
2022/03/23 08:47:32;;;;;;;8.57;6.38;;;;;;;37.07;6.48;100441.66;4845315;29;20044;-65
2022/03/23 08:49:57;;;;;;;12.73;6.93;;;;;;;37.96;6.38;100433.44;4844469;29;20116;-67
2022/03/23 08:52:29;;;;;;;10.45;6.63;;;;;;;38.71;5.97;100437.69;4845593;29;20049;-64
2022/03/23 08:54:53;;;;;;;7.30;6.60;;;;;;;39.11;5.84;100430.50;4861485;29;20047;-65
2022/03/23 08:57:18;;;;;;;10.80;6.80;;;;;;;39.17;5.76;100435.78;4850183;29;20048;-66
2022/03/23 08:59:43;;;;;;;7.15;6.45;;;;;;;38.26;5.98;100427.22;4842936;29;20040;-66
2022/03/23 09:02:08;;;;;;;9.68;7.80;;;;;;;37.73;6.28;100429.16;4843343;29;20056;-66
2022/03/23 09:04:32;;;;;;;9.77;7.05;;;;;;;38.32;5.96;100426.13;4843289;29;20060;-67
2022/03/23 09:06:57;;;;;;;11.45;7.40;;;;;;;38.85;6.15;100424.03;4849956;29;20173;-66
2022/03/23 09:09:22;;;;;;;13.20;6.90;;;;;;;39.29;5.90;100415.13;4843342;29;20083;-65
2022/03/23 09:11:47;;;;;;;10.25;6.70;;;;;;;39.19;5.88;100419.59;4843518;29;20089;-66
2022/03/23 09:14:12;;;;;;;9.07;6.68;;;;;;;38.79;6.14;100416.78;4842016;29;20132;-65
2022/03/23 09:16:37;;;;;;;11.60;6.80;;;;;;;38.36;6.14;100418.91;4843279;29;20113;-66
2022/03/23 09:19:02;;;;;;;10.00;7.82;;;;;;;38.21;5.86;100418.84;4843321;29;20124;-66
2022/03/23 09:21:27;;;;;;;13.23;7.20;;;;;;;37.90;6.05;100405.88;4841878;29;20136;-65
2022/03/23 09:23:51;;;;;;;10.52;7.63;;;;;;;37.58;6.28;100401.22;4842710;29;20049;-66
2022/03/23 09:26:16;;;;;;;8.90;7.97;;;;;;;38.34;5.91;100395.19;4843129;29;20100;-66
2022/03/23 09:28:41;;;;;;;8.68;7.55;;;;;;;39.09;5.87;100399.25;4843281;29;20134;-64
2022/03/23 09:31:06;;;;;;;10.07;7.53;;;;;;;39.53;5.73;100400.34;4843346;29;20045;-65
2022/03/23 09:33:31;;;;;;;7.88;7.13;;;;;;;39.81;5.79;100400.81;4845114;29;20186;-64
2022/03/23 09:35:56;;;;;;;9.98;7.68;;;;;;;39.82;5.87;100400.56;4841520;29;20045;-69
2022/03/23 09:38:21;;;;;;;11.20;8.20;;;;;;;39.72;6.00;100383.00;4844192;29;20136;-66
2022/03/23 09:40:49;;;;;;;9.57;8.18;;;;;;;39.82;5.46;100394.13;4843985;29;20147;-66
2022/03/23 09:43:15;;;;;;;10.15;7.95;;;;;;;39.92;5.42;100397.75;4844153;29;20052;-65
2022/03/23 09:48:11;;;;;;;10.23;7.50;;;;;;;39.88;5.56;100384.63;4842814;29;20060;-66
2022/03/23 09:50:40;;;;;;;10.63;7.97;;;;;;;39.69;5.41;100383.56;4845379;29;20522;-67
2022/03/23 09:53:05;;;;;;;8.57;7.63;;;;;;;38.97;5.69;100374.44;4830659;29;20048;-66
2022/03/23 09:55:30;;;;;;;10.05;7.32;;;;;;;38.80;6.00;100377.47;4844962;29;20159;-65
2022/03/23 09:57:57;;;;;;;9.32;7.05;;;;;;;38.62;6.06;100366.00;4845148;29;20049;-66
2022/03/23 10:00:22;;;;;;;13.27;7.57;;;;;;;38.14;6.08;100370.91;4841575;29;20041;-66
2022/03/23 10:03:12;;;;;;;10.38;6.93;;;;;;;38.53;6.22;100362.09;4843266;29;20124;-66
2022/03/23 10:06:14;;;;;;;14.10;7.60;;;;;;;38.58;5.66;100356.56;4843701;29;20051;-67
2022/03/23 10:09:00;;;;;;;14.43;7.97;;;;;;;37.64;5.89;100341.72;4843406;29;20049;-66
2022/03/23 10:11:47;;;;;;;10.65;7.20;;;;;;;36.79;6.02;100341.94;4852183;29;20045;-68
2022/03/23 10:14:30;;;;;;;8.68;6.97;;;;;;;35.63;6.53;100329.19;4852795;29;20053;-65
2022/03/23 10:17:06;;;;;;;9.88;6.88;;;;;;;34.03;7.12;100321.47;4852446;29;20049;-66
2022/03/23 10:19:31;;;;;;;9.88;6.63;;;;;;;34.61;6.85;100334.22;4853974;29;20136;-67
2022/03/23 10:22:09;;;;;;;11.20;6.80;;;;;;;35.08;6.58;100323.66;4843000;29;20552;-67
2022/03/23 10:24:35;;;;;;;9.52;7.45;;;;;;;33.01;7.48;100312.84;4842806;29;20497;-68
2022/03/23 10:27:09;;;;;;;10.32;6.82;;;;;;;30.73;8.61;100314.44;4843042;29;20113;-66
2022/03/23 10:29:42;;;;;;;12.35;6.88;;;;;;;28.38;9.88;100296.56;4843180;29;20071;-66
2022/03/23 10:32:09;;;;;;;10.43;5.68;;;;;;;26.10;11.21;100294.69;4842631;29;20417;-65
2022/03/23 10:34:43;;;;;;;11.80;7.13;;;;;;;23.82;12.66;100287.09;4842328;29;20045;-66
2022/03/23 10:37:08;;;;;;;8.88;5.97;;;;;;;22.07;13.63;100286.09;4841059;29;20072;-66
2022/03/23 10:39:33;;;;;;;7.15;5.20;;;;;;;21.37;15.01;100279.28;4842742;29;20084;-66
2022/03/23 10:42:29;;;;;;;8.80;5.30;;;;;;;21.01;14.82;100275.84;4842165;29;20041;-66
2022/03/23 10:45:10;;;;;;;13.73;5.78;;;;;;;20.29;15.76;100269.75;4842451;29;20055;-67
2022/03/23 10:47:37;;;;;;;15.32;5.68;;;;;;;18.63;16.07;100262.84;4841552;29;20037;-67
2022/03/23 10:50:21;;;;;;;8.68;4.75;;;;;;;18.04;16.95;100261.19;4853645;29;20521;-66
2022/03/23 10:52:59;;;;;;;7.60;4.30;;;;;;;17.18;17.75;100253.78;4845973;29;20072;-67
2022/03/23 10:55:28;;;;;;;8.20;5.22;;;;;;;17.02;18.05;100248.91;4851571;29;20257;-67
2022/03/23 10:57:59;;;;;;;11.52;5.30;;;;;;;16.53;18.62;100247.78;4854882;29;20045;-66
2022/03/23 11:00:44;;;;;;;8.82;4.75;;;;;;;16.24;18.79;100246.75;4844866;29;20181;-67
2022/03/23 11:03:09;;;;;;;5.78;4.43;;;;;;;16.03;19.22;100241.34;4813899;29;20504;-67
2022/03/23 11:05:48;;;;;;;6.53;4.32;;;;;;;16.11;19.25;100241.56;4831791;29;20053;-67
2022/03/23 11:08:21;;;;;;;5.72;4.78;;;;;;;15.82;19.20;100237.78;4854531;29;20603;-68
2022/03/23 11:16:31;;;;;;;18.25;5.38;;;;;;;15.00;19.95;100223.06;4864591;29;20054;-68
2022/03/23 11:19:18;;;;;;;8.82;4.53;;;;;;;15.02;20.15;100231.81;4865516;29;20052;-66
2022/03/23 11:22:05;;;;;;;6.35;4.13;;;;;;;15.13;19.61;100219.25;4864446;29;20048;-66
2022/03/23 11:24:38;;;;;;;7.32;4.30;;;;;;;14.85;20.52;100217.09;4864149;29;20092;-67
2022/03/23 11:27:06;;;;;;;8.20;4.30;;;;;;;14.43;20.15;100215.97;4862546;29;20178;-67
2022/03/23 11:29:32;;;;;;;9.32;4.35;;;;;;;14.34;20.63;100211.28;4854280;29;20072;-66
2022/03/23 11:32:01;;;;;;;9.25;4.15;;;;;;;14.18;20.83;100208.94;4846126;29;20037;-67
2022/03/23 11:34:26;;;;;;;8.00;4.22;;;;;;;14.14;21.21;100205.63;4846427;29;20049;-67
2022/03/23 11:36:54;;;;;;;8.02;5.13;;;;;;;14.11;20.70;100199.66;4848109;29;20084;-66
2022/03/23 11:39:22;;;;;;;8.35;4.35;;;;;;;14.12;20.93;100204.03;4848746;29;20044;-67
2022/03/23 11:41:48;;;;;;;9.32;4.00;;;;;;;13.92;20.91;100197.53;4859785;29;20044;-65
2022/03/23 11:44:19;;;;;;;10.75;4.80;;;;;;;13.92;20.87;100192.19;4863703;29;20048;-64